Aérodrome :
LOGIN :

S'inscrire | Disclaimer

   EN    FR    IT 

 










Légende :    VFR   VFR Marginal   IFR   IFR Intensif   IFR Très Intensif
Visi : 
Plafond : 
>= 8 km
>= 3000ft
5 à 8 km
1000 à 3000 ft
1500m à 5 km
500 à 1000 ft
800 à 1500m
200 à 500 ft
< 800m
< 200 ft
Symboles :   Orages  Brouillard  Fortes neiges  Fortes précipitations  Vent > 20 kt
SIGMETs :   Divers  Orages  Givrage  Turbulence  Onde Orograph.  Cendres Volcan.






- Altitude de l'aérodrome : 33 ft
- Code IATA : MHZ


EGUN - RAF Mildenhall

DERNIER METAR :
  • 200035Z 32009KT 9999 SCT055 05/00 A3022 RMK AO2A SLP237 $

METARs EXPIRÉS :
  • 200005Z 32013G18KT 9999 FEW029 BKN044 BKN050 05/M00 A3022 RMK AO2A SLP237 $
  • 192355Z 31010KT 9999 SCT042 BKN055 05/M00 A3022 RMK AO2A SLP237 T00471005 10091 20042 401430042 52014 $
  • 192255Z 32008KT 9999 FEW037 SCT055 06/01 A3021 RMK AO2A SLP233 T00580009 $
  • 192155Z 35013G20KT 9999 FEW080 07/01 A3020 RMK AO2A SLP230 T00690010 $
  • 192055Z 35010KT 9999 FEW080 07/01 A3018 RMK AO2A SLP223 T00650006 52026 $
  • 191955Z 36014G21KT 9999 SCT050 BKN080 08/01 A3015 RMK AO2A SLP213 T00800014 $

TAF TAF EGUN
Valide du 19 à 20h jusqu'au 21 à 02h UTC


192003Z 1920/2102 35012G18KT 9999 SCT040 BKN080 QNH3015INS
TEMPO 1920/1924 35012G20KT
BECMG 2004/2005 32010G15KT 9999 BKN030 BKN050 QNH3027INS
BECMG 2006/2007 33012G22KT 9999 BKN030 BKN050 510003 QNH3031INS
BECMG 2013/2014 36014G24KT 9999 SCT040 BKN060 510003 QNH3036INS
BECMG 2017/2018 36012G18KT 9999 SCT050 BKN100 QNH3037INS
BECMG 2020/2021 35009KT 9999 FEW020 BKN050 BKN080 QNH3037INS TX10/2013Z TN02/2005Z



MET'MAP, la Météo Aéronautique d'un coup d'oeil ! - Copyright ORBIFLY Décembre 2007 - Disclaimer

ORBIFLY MET'MAP TEAM :

Programmation & Développement : Alexandra Zaïnal
Sur une idée originale de : Baudouin d'Aumeries
Soutien technique & logistique : Manuel Goepfert
Assistance : Marc-Olivier Méhu




SOURCES & CREDITS :

   NOAA